Time;durP1;ratioP1;P1;durP2;ratioP2;P2;SDS_P1;SDS_P2;PMS_P1;PMS_P2;Temp;Humidity;BMP_temperature;BMP_pressure;BME280_temperature;BME280_humidity;BME280_pressure;Samples;Min_cycle;Max_cycle;Signal;HPM_P1;HPM_P2
2022/03/06 00:04:42;;;;;;;11.47;7.70;;;2.80;69.30;;;;;;10385008;28;20556;-75
2022/03/06 00:09:45;;;;;;;12.63;7.83;;;2.80;70.00;;;;;;10386735;28;20221;-76
2022/03/06 00:14:46;;;;;;;13.70;7.67;;;2.70;69.90;;;;;;10425105;28;20236;-75
2022/03/06 00:19:50;;;;;;;10.40;7.23;;;2.70;70.30;;;;;;10400687;28;20228;-75
2022/03/06 00:24:56;;;;;;;9.57;6.93;;;2.70;70.60;;;;;;10393486;28;20301;-75
2022/03/06 00:29:57;;;;;;;13.67;8.10;;;2.70;71.10;;;;;;10384048;28;20245;-76
2022/03/06 00:34:58;;;;;;;12.80;8.13;;;2.70;72.00;;;;;;10384932;28;20251;-76
2022/03/06 00:39:59;;;;;;;11.93;8.87;;;2.80;70.90;;;;;;10392856;28;20309;-75
2022/03/06 00:44:59;;;;;;;11.03;7.70;;;3.00;70.70;;;;;;10447257;28;20313;-75
2022/03/06 00:50:03;;;;;;;12.03;7.90;;;3.10;69.90;;;;;;10405848;28;20303;-76
2022/03/06 00:55:05;;;;;;;10.33;7.20;;;3.00;69.90;;;;;;10405320;28;20225;-77
2022/03/06 01:00:07;;;;;;;10.77;7.27;;;3.10;69.30;;;;;;10383444;28;20233;-76
2022/03/06 01:05:08;;;;;;;11.80;7.30;;;3.10;69.40;;;;;;10404145;28;20199;-74
2022/03/06 01:10:09;;;;;;;11.30;7.20;;;3.10;69.70;;;;;;10388963;28;20616;-76
2022/03/06 01:15:10;;;;;;;9.80;6.73;;;3.20;69.90;;;;;;10440887;28;20215;-75
2022/03/06 01:20:11;;;;;;;10.67;7.03;;;3.30;69.30;;;;;;10435730;28;20649;-75
2022/03/06 01:25:12;;;;;;;9.13;6.07;;;3.40;68.40;;;;;;10422254;28;20671;-75
2022/03/06 01:30:21;;;;;;;9.20;6.53;;;3.40;67.90;;;;;;10398934;28;20189;-75
2022/03/06 01:35:22;;;;;;;8.60;6.00;;;3.40;67.70;;;;;;10434784;28;20192;-75
2022/03/06 01:40:30;;;;;;;9.90;6.30;;;3.40;67.30;;;;;;10389968;28;20237;-75
2022/03/06 01:45:31;;;;;;;9.40;6.53;;;3.50;67.70;;;;;;10420267;28;20274;-75
2022/03/06 01:50:32;;;;;;;9.67;6.23;;;3.50;67.80;;;;;;10405354;28;20631;-75
2022/03/06 01:55:33;;;;;;;8.13;5.73;;;3.30;67.60;;;;;;10428064;28;20227;-76
2022/03/06 02:00:38;;;;;;;8.83;6.23;;;3.30;67.60;;;;;;10389173;28;20239;-77
2022/03/06 02:05:39;;;;;;;8.17;5.77;;;3.20;67.60;;;;;;10421397;28;20228;-75
2022/03/06 02:10:39;;;;;;;8.30;5.70;;;3.10;67.80;;;;;;10432279;28;20522;-75
2022/03/06 02:15:43;;;;;;;9.43;5.77;;;3.10;68.00;;;;;;10414362;28;20703;-75
2022/03/06 02:20:44;;;;;;;8.30;5.80;;;3.00;68.10;;;;;;10395092;28;20232;-75
2022/03/06 02:25:45;;;;;;;9.97;6.53;;;2.90;68.90;;;;;;10403764;28;20657;-75
2022/03/06 02:30:46;;;;;;;8.37;5.77;;;2.80;69.80;;;;;;10420198;28;20624;-76
2022/03/06 02:35:46;;;;;;;10.93;6.53;;;2.70;70.40;;;;;;10442064;28;20237;-76
2022/03/06 02:40:48;;;;;;;8.43;6.07;;;2.70;70.60;;;;;;10397282;28;20239;-76
2022/03/06 02:45:48;;;;;;;9.87;6.40;;;2.60;70.90;;;;;;10411396;28;20280;-75
2022/03/06 02:50:51;;;;;;;9.20;5.77;;;2.50;71.20;;;;;;10427681;28;20700;-74
2022/03/06 02:55:52;;;;;;;8.90;5.77;;;2.40;71.60;;;;;;10424228;28;20295;-75
2022/03/06 03:00:56;;;;;;;9.37;6.20;;;2.30;72.40;;;;;;10392470;28;20590;-74
2022/03/06 03:05:57;;;;;;;10.57;6.90;;;2.20;72.90;;;;;;10392010;28;20216;-75
2022/03/06 03:10:58;;;;;;;8.67;6.07;;;2.10;73.40;;;;;;10436212;28;20224;-74
2022/03/06 03:15:58;;;;;;;9.73;6.67;;;2.00;74.00;;;;;;10394434;28;20308;-74
2022/03/06 03:21:00;;;;;;;8.90;5.90;;;1.90;74.40;;;;;;10402968;28;20252;-77
2022/03/06 03:26:01;;;;;;;10.93;6.33;;;1.90;74.80;;;;;;10420102;28;20296;-74
2022/03/06 03:31:02;;;;;;;10.87;6.07;;;1.80;75.30;;;;;;10429204;28;20827;-75
2022/03/06 03:36:03;;;;;;;10.67;6.70;;;1.80;75.80;;;;;;10390810;28;20751;-74
2022/03/06 03:41:04;;;;;;;8.80;5.80;;;1.80;76.00;;;;;;10391686;28;20298;-74
2022/03/06 03:46:08;;;;;;;8.57;6.60;;;1.80;76.10;;;;;;10371648;28;20209;-75
2022/03/06 03:51:08;;;;;;;9.67;5.93;;;1.80;76.40;;;;;;10396563;28;20236;-74
2022/03/06 03:56:09;;;;;;;9.30;6.33;;;1.70;76.90;;;;;;10394548;28;20262;-74
2022/03/06 04:01:10;;;;;;;12.57;6.97;;;1.70;77.50;;;;;;10394496;28;20241;-76
2022/03/06 04:06:11;;;;;;;9.10;5.93;;;1.70;77.90;;;;;;10395993;28;20225;-74
2022/03/06 04:11:11;;;;;;;11.00;6.20;;;1.60;77.90;;;;;;10397545;28;20240;-76
2022/03/06 04:16:12;;;;;;;9.47;6.40;;;1.60;78.20;;;;;;10419386;28;20217;-75
2022/03/06 04:21:13;;;;;;;9.73;5.63;;;1.50;78.40;;;;;;10392920;28;20232;-75
2022/03/06 04:26:13;;;;;;;8.90;5.80;;;1.50;78.70;;;;;;10420938;28;20224;-75
2022/03/06 04:31:15;;;;;;;9.97;6.30;;;1.40;79.00;;;;;;10428679;28;20224;-74
2022/03/06 04:36:18;;;;;;;8.40;6.07;;;1.30;79.40;;;;;;10385672;28;20267;-76
2022/03/06 04:41:19;;;;;;;10.53;6.13;;;1.30;79.90;;;;;;10390017;28;20235;-75
2022/03/06 04:46:20;;;;;;;8.67;5.60;;;1.30;80.20;;;;;;10430573;28;20587;-75
2022/03/06 04:51:21;;;;;;;7.77;5.90;;;1.40;80.30;;;;;;10399206;28;20221;-75
2022/03/06 04:56:21;;;;;;;11.27;5.97;;;1.40;80.20;;;;;;10432187;28;20212;-76
2022/03/06 05:01:25;;;;;;;8.23;5.57;;;1.50;80.30;;;;;;10449405;28;20469;-76
2022/03/06 05:06:26;;;;;;;8.70;5.83;;;1.60;80.10;;;;;;10448200;28;20225;-76
2022/03/06 05:11:28;;;;;;;10.50;5.53;;;1.70;79.80;;;;;;10408965;28;20217;-75
2022/03/06 05:16:28;;;;;;;7.20;5.30;;;1.80;79.50;;;;;;10406663;28;20235;-75
2022/03/06 05:21:29;;;;;;;9.60;6.17;;;1.80;79.50;;;;;;10404766;28;20283;-75
2022/03/06 05:26:30;;;;;;;11.67;5.63;;;1.80;79.60;;;;;;10401445;28;20300;-75
2022/03/06 05:31:30;;;;;;;8.67;5.70;;;1.80;79.70;;;;;;10393114;28;20229;-76
2022/03/06 05:36:31;;;;;;;9.40;5.97;;;1.80;79.80;;;;;;10396710;28;20778;-75
2022/03/06 05:41:32;;;;;;;7.80;5.77;;;1.70;79.80;;;;;;10402447;28;20691;-75
2022/03/06 05:46:32;;;;;;;6.90;4.90;;;1.70;81.00;;;;;;10396727;28;20700;-74
2022/03/06 05:51:33;;;;;;;7.33;5.10;;;1.80;79.90;;;;;;10402442;28;20699;-74
2022/03/06 05:56:34;;;;;;;7.73;5.33;;;1.70;79.80;;;;;;10396103;28;20593;-74
2022/03/06 06:01:35;;;;;;;8.97;5.87;;;1.80;79.90;;;;;;10393855;28;20708;-74
2022/03/06 06:06:35;;;;;;;7.33;5.10;;;1.80;79.80;;;;;;10434531;28;20243;-74
2022/03/06 06:11:36;;;;;;;7.33;5.20;;;1.90;79.40;;;;;;10404181;28;20227;-74
2022/03/06 06:16:37;;;;;;;7.63;5.37;;;1.90;79.50;;;;;;10391411;28;20836;-74
2022/03/06 06:21:39;;;;;;;5.67;4.57;;;2.00;78.90;;;;;;10391764;28;20232;-74
2022/03/06 06:26:40;;;;;;;7.63;5.43;;;2.10;78.40;;;;;;10387020;28;20277;-73
2022/03/06 06:31:41;;;;;;;8.80;5.70;;;2.20;78.30;;;;;;10385148;28;20222;-73
2022/03/06 06:36:42;;;;;;;6.83;5.00;;;2.20;78.10;;;;;;10386394;28;20229;-73
2022/03/06 06:41:43;;;;;;;7.63;5.23;;;2.30;77.80;;;;;;10392104;28;20231;-73
2022/03/06 06:46:43;;;;;;;8.63;5.57;;;2.30;77.30;;;;;;10397999;28;20696;-76
2022/03/06 06:51:44;;;;;;;7.93;5.60;;;2.40;77.00;;;;;;10415485;28;20215;-74
2022/03/06 06:56:45;;;;;;;7.83;5.37;;;2.50;76.50;;;;;;10399293;28;20276;-73
2022/03/06 07:01:45;;;;;;;8.50;5.27;;;2.60;76.10;;;;;;10395910;28;20283;-75
2022/03/06 07:06:46;;;;;;;7.23;5.07;;;2.70;75.40;;;;;;10404348;28;20224;-75
2022/03/06 07:11:46;;;;;;;6.63;4.93;;;2.70;75.40;;;;;;10428044;28;20229;-74
2022/03/06 07:16:50;;;;;;;7.20;5.30;;;2.90;75.00;;;;;;10402116;28;20220;-74
2022/03/06 07:21:53;;;;;;;7.57;5.07;;;3.20;73.90;;;;;;10437960;28;20239;-74
2022/03/06 07:26:54;;;;;;;7.73;5.30;;;3.50;72.80;;;;;;10390698;28;20244;-74
2022/03/06 07:31:55;;;;;;;8.63;5.40;;;3.80;70.90;;;;;;10387820;28;20750;-74
2022/03/06 07:36:55;;;;;;;9.03;5.70;;;4.20;69.60;;;;;;10393664;28;20660;-73
2022/03/06 07:41:56;;;;;;;7.93;5.63;;;4.70;68.10;;;;;;10388349;28;20255;-75
2022/03/06 07:46:56;;;;;;;7.47;5.27;;;5.20;65.00;;;;;;10396140;28;20666;-75
2022/03/06 07:51:57;;;;;;;7.47;5.27;;;5.40;64.50;;;;;;10390011;28;20311;-73
2022/03/06 07:56:57;;;;;;;7.00;5.17;;;5.70;63.10;;;;;;10390612;28;20239;-74
2022/03/06 08:01:58;;;;;;;6.93;5.07;;;5.70;62.00;;;;;;10385806;28;20703;-74
2022/03/06 08:06:59;;;;;;;7.47;5.27;;;6.60;60.70;;;;;;10409210;28;20220;-74
2022/03/06 08:12:00;;;;;;;7.10;5.63;;;9.00;54.00;;;;;;10386374;28;20676;-75
2022/03/06 08:17:01;;;;;;;6.20;5.20;;;10.70;49.40;;;;;;10394250;28;20270;-75
2022/03/06 08:22:01;;;;;;;6.07;5.03;;;9.80;49.90;;;;;;10387118;28;20779;-77
2022/03/06 08:27:02;;;;;;;7.03;5.20;;;10.50;48.80;;;;;;10403135;28;20777;-75
2022/03/06 08:32:03;;;;;;;6.83;5.17;;;11.60;46.30;;;;;;10424917;28;20224;-75
2022/03/06 08:37:04;;;;;;;6.60;5.37;;;12.40;45.20;;;;;;10397049;28;20228;-75
2022/03/06 08:42:05;;;;;;;6.63;5.47;;;13.20;42.40;;;;;;10396430;28;20239;-76
2022/03/06 08:47:06;;;;;;;7.97;5.47;;;14.10;40.80;;;;;;10401853;28;20221;-76
2022/03/06 08:52:07;;;;;;;7.77;5.40;;;14.40;39.30;;;;;;10397012;28;20235;-76
2022/03/06 08:57:08;;;;;;;8.30;6.43;;;13.70;38.80;;;;;;10407459;28;20214;-76
2022/03/06 09:02:08;;;;;;;7.60;5.00;;;14.10;38.90;;;;;;10406074;28;20237;-74
2022/03/06 09:07:09;;;;;;;5.40;4.90;;;14.10;36.80;;;;;;10410805;28;20232;-76
2022/03/06 09:12:10;;;;;;;5.40;4.53;;;14.30;36.70;;;;;;10387241;28;20272;-75
2022/03/06 09:17:10;;;;;;;5.63;5.07;;;15.10;35.50;;;;;;10411029;28;20282;-75
2022/03/06 09:22:11;;;;;;;6.07;5.10;;;15.40;34.60;;;;;;10410529;28;20655;-76
2022/03/06 09:27:11;;;;;;;5.50;5.00;;;15.40;33.60;;;;;;10392496;28;20220;-76
2022/03/06 09:32:14;;;;;;;6.80;5.30;;;15.90;33.40;;;;;;10392886;28;20598;-77
2022/03/06 09:37:14;;;;;;;4.80;4.40;;;16.50;31.90;;;;;;10412697;28;20255;-76
2022/03/06 09:42:19;;;;;;;5.73;4.90;;;16.70;30.20;;;;;;10401519;28;20229;-73
2022/03/06 09:47:23;;;;;;;5.57;4.97;;;16.50;29.90;;;;;;10410291;28;20217;-75
2022/03/06 09:52:27;;;;;;;6.10;5.03;;;16.80;30.60;;;;;;10404915;28;20208;-76
2022/03/06 09:57:28;;;;;;;6.03;5.33;;;16.40;29.90;;;;;;10408868;28;20295;-74
2022/03/06 10:02:29;;;;;;;6.13;5.10;;;16.00;29.40;;;;;;10407810;28;20242;-75
2022/03/06 10:07:29;;;;;;;5.77;5.13;;;17.20;29.30;;;;;;10408559;28;20220;-73
2022/03/06 10:12:32;;;;;;;5.80;5.20;;;16.60;28.90;;;;;;10414523;28;20226;-75
2022/03/06 10:17:33;;;;;;;5.83;4.90;;;14.70;30.60;;;;;;10414092;28;20222;-76
2022/03/06 10:22:37;;;;;;;5.10;4.60;;;14.80;31.50;;;;;;10413850;28;20235;-75
2022/03/06 10:27:53;;;;;;;6.50;4.87;;;17.80;29.10;;;;;;10420419;28;20305;-74
2022/03/06 10:32:56;;;;;;;5.80;5.20;;;17.60;27.60;;;;;;10436194;28;20212;-73
2022/03/06 10:37:57;;;;;;;5.60;5.10;;;15.50;29.30;;;;;;10439711;23;20688;-73
2022/03/06 10:42:57;;;;;;;5.40;4.60;;;13.20;31.90;;;;;;10328702;28;20196;-72
2022/03/06 10:48:08;;;;;;;5.40;4.77;;;16.30;30.00;;;;;;10343947;28;20286;-74
2022/03/06 10:53:17;;;;;;;5.23;4.73;;;18.60;27.50;;;;;;10358231;28;20550;-74
2022/03/06 10:58:19;;;;;;;6.13;5.07;;;18.60;26.90;;;;;;10339660;28;20295;-74
2022/03/06 11:03:20;;;;;;;6.90;5.17;;;17.60;27.90;;;;;;10347437;28;20194;-74
2022/03/06 11:08:24;;;;;;;6.13;5.53;;;19.20;26.30;;;;;;10339672;28;20605;-75
2022/03/06 11:13:28;;;;;;;5.30;4.80;;;18.10;26.80;;;;;;10348896;28;20228;-75
2022/03/06 11:18:30;;;;;;;5.67;5.13;;;19.90;26.40;;;;;;10332770;28;20225;-75
2022/03/06 11:23:45;;;;;;;6.00;5.40;;;21.00;25.00;;;;;;10331732;28;20309;-75
2022/03/06 11:29:13;;;;;;;5.20;4.70;;;17.80;27.00;;;;;;10333190;28;20309;-76
2022/03/06 11:34:29;;;;;;;6.30;5.70;;;17.70;28.40;;;;;;10344819;28;20301;-75
2022/03/06 11:39:29;;;;;;;7.40;5.77;;;16.00;28.70;;;;;;10338957;28;20231;-76
2022/03/06 11:44:37;;;;;;;6.20;5.60;;;14.00;32.20;;;;;;10322333;28;20227;-74
2022/03/06 11:49:37;;;;;;;6.13;5.53;;;12.40;35.20;;;;;;10337151;28;20221;-75
2022/03/06 11:54:42;;;;;;;6.37;5.77;;;11.30;36.80;;;;;;10335592;28;20245;-74
2022/03/06 11:59:44;;;;;;;6.90;5.80;;;10.70;38.70;;;;;;10336828;28;20235;-74
2022/03/06 12:04:47;;;;;;;6.10;5.50;;;10.30;39.50;;;;;;10348986;28;20213;-74
2022/03/06 12:09:48;;;;;;;7.70;5.90;;;10.10;39.60;;;;;;10344293;28;20224;-74
2022/03/06 12:14:53;;;;;;;9.47;5.67;;;10.30;40.00;;;;;;10346944;28;20217;-74
2022/03/06 12:19:54;;;;;;;6.13;5.53;;;10.40;39.90;;;;;;10341881;28;20654;-75
2022/03/06 12:25:08;;;;;;;7.23;5.83;;;9.90;40.30;;;;;;10343891;28;20254;-75
2022/03/06 12:30:17;;;;;;;7.47;6.23;;;9.80;40.40;;;;;;10345081;28;20714;-76
2022/03/06 12:35:22;;;;;;;6.37;5.60;;;9.70;41.00;;;;;;10337415;28;20193;-78
2022/03/06 12:40:24;;;;;;;6.90;6.17;;;9.60;40.70;;;;;;10339483;28;20256;-77
2022/03/06 12:45:25;;;;;;;6.37;5.37;;;9.80;41.00;;;;;;10345156;28;20225;-78
2022/03/06 12:50:27;;;;;;;7.43;6.07;;;9.60;41.30;;;;;;10350134;28;20225;-77
2022/03/06 12:55:27;;;;;;;6.63;5.93;;;9.60;41.70;;;;;;10341689;28;20217;-77
2022/03/06 13:00:29;;;;;;;7.43;5.70;;;9.30;41.70;;;;;;10355379;28;20237;-77
2022/03/06 13:05:31;;;;;;;6.57;5.57;;;9.30;42.20;;;;;;10339788;28;20236;-76
2022/03/06 13:10:32;;;;;;;7.23;6.07;;;9.60;41.90;;;;;;10321494;28;20228;-76
2022/03/06 13:15:33;;;;;;;7.53;6.10;;;9.10;42.00;;;;;;10336499;28;20236;-76
2022/03/06 13:20:36;;;;;;;7.23;5.90;;;9.00;42.40;;;;;;10351888;28;20256;-77
2022/03/06 13:25:36;;;;;;;7.37;5.80;;;9.00;43.10;;;;;;10339984;28;20224;-78
2022/03/06 13:30:38;;;;;;;8.57;5.93;;;9.30;43.00;;;;;;10354039;28;20232;-76
2022/03/06 13:35:41;;;;;;;8.10;6.10;;;9.20;41.90;;;;;;10328819;28;20231;-77
2022/03/06 13:40:48;;;;;;;7.00;6.00;;;8.90;42.50;;;;;;10338410;28;20788;-76
2022/03/06 13:45:55;;;;;;;6.20;5.60;;;8.80;43.50;;;;;;10339919;28;20229;-75
2022/03/06 13:50:57;;;;;;;7.03;5.87;;;8.90;43.80;;;;;;10332684;28;20226;-75
2022/03/06 13:56:01;;;;;;;10.43;6.47;;;8.80;42.90;;;;;;10319891;28;20225;-71
2022/03/06 14:01:03;;;;;;;9.67;6.33;;;9.00;44.10;;;;;;10321235;28;20222;-74
2022/03/06 14:06:05;;;;;;;8.97;6.20;;;9.20;44.20;;;;;;10327558;28;20343;-74
2022/03/06 14:11:08;;;;;;;8.53;6.57;;;9.40;44.10;;;;;;10351270;28;20271;-74
2022/03/06 14:16:17;;;;;;;7.70;6.13;;;9.60;43.60;;;;;;10348852;28;20276;-74
2022/03/06 14:21:29;;;;;;;6.83;6.13;;;9.30;44.00;;;;;;10350406;28;20228;-75
2022/03/06 14:26:32;;;;;;;7.50;6.50;;;8.80;44.60;;;;;;10349155;28;20298;-74
2022/03/06 14:31:33;;;;;;;7.07;6.23;;;8.50;45.60;;;;;;10345948;28;20660;-75
2022/03/06 14:36:34;;;;;;;7.43;6.20;;;8.40;46.10;;;;;;10355830;28;20259;-74
2022/03/06 14:41:36;;;;;;;7.17;5.63;;;8.70;45.40;;;;;;10344268;28;20391;-73
2022/03/06 14:46:39;;;;;;;12.37;6.73;;;9.30;45.10;;;;;;10339610;28;20250;-74
2022/03/06 14:51:41;;;;;;;9.57;5.80;;;9.40;44.90;;;;;;10337243;28;20695;-75
2022/03/06 14:56:42;;;;;;;8.63;6.13;;;8.90;44.80;;;;;;10338912;28;20218;-73
2022/03/06 15:01:43;;;;;;;8.97;6.20;;;8.40;45.60;;;;;;10340315;28;20234;-72
2022/03/06 15:06:43;;;;;;;6.27;5.67;;;8.10;46.60;;;;;;10343508;28;20269;-72
2022/03/06 15:11:44;;;;;;;7.30;5.97;;;8.10;46.90;;;;;;10340337;28;20216;-73
2022/03/06 15:16:45;;;;;;;6.23;5.13;;;8.20;46.60;;;;;;10342616;28;20225;-73
2022/03/06 15:21:46;;;;;;;6.83;5.10;;;8.50;46.20;;;;;;10334251;28;20604;-71
2022/03/06 15:26:46;;;;;;;7.10;5.67;;;8.60;46.10;;;;;;10343643;28;20276;-74
2022/03/06 15:31:47;;;;;;;6.23;5.17;;;8.30;46.70;;;;;;10343534;28;20225;-75
2022/03/06 15:36:48;;;;;;;6.33;4.90;;;8.00;46.90;;;;;;10340146;28;20895;-75
2022/03/06 15:41:48;;;;;;;6.83;5.67;;;7.90;47.30;;;;;;10329016;28;20241;-73
2022/03/06 15:46:49;;;;;;;7.53;5.93;;;7.70;48.50;;;;;;10343737;28;20233;-74
2022/03/06 15:51:49;;;;;;;5.90;5.30;;;7.50;49.30;;;;;;10340769;28;20236;-74
2022/03/06 15:56:50;;;;;;;10.07;6.37;;;7.50;49.60;;;;;;10340240;28;20228;-72
2022/03/06 16:01:51;;;;;;;7.20;6.23;;;7.40;50.20;;;;;;10334754;28;20237;-72
2022/03/06 16:06:51;;;;;;;10.47;8.03;;;7.20;50.00;;;;;;10341536;28;20224;-74
2022/03/06 16:11:52;;;;;;;9.63;8.63;;;7.10;51.50;;;;;;10331520;28;20232;-74
2022/03/06 16:16:53;;;;;;;13.10;8.50;;;7.00;52.20;;;;;;10343372;28;20225;-75
2022/03/06 16:21:54;;;;;;;9.70;8.70;;;6.90;52.60;;;;;;10346133;28;20236;-73
2022/03/06 16:26:55;;;;;;;12.13;8.33;;;6.80;52.90;;;;;;10343343;28;20212;-73
2022/03/06 16:31:55;;;;;;;9.80;7.63;;;6.70;52.80;;;;;;10336429;28;20225;-73
2022/03/06 16:36:56;;;;;;;9.50;8.50;;;6.60;53.60;;;;;;10339670;28;20229;-74
2022/03/06 16:41:59;;;;;;;10.87;7.87;;;6.50;52.80;;;;;;10351950;28;20241;-75
2022/03/06 16:46:59;;;;;;;9.20;8.03;;;6.30;52.90;;;;;;10345578;28;20235;-75
2022/03/06 16:52:00;;;;;;;8.23;7.43;;;6.30;53.10;;;;;;10350279;28;20222;-74
2022/03/06 16:57:01;;;;;;;9.17;7.60;;;6.30;53.30;;;;;;10366959;28;20328;-72
2022/03/06 17:02:01;;;;;;;9.00;7.33;;;6.20;53.40;;;;;;10360855;28;20245;-71
2022/03/06 17:07:05;;;;;;;7.63;6.67;;;6.10;53.10;;;;;;10352249;28;20221;-71
2022/03/06 17:12:06;;;;;;;8.07;6.80;;;6.10;52.80;;;;;;10341393;28;20221;-74
2022/03/06 17:17:07;;;;;;;10.57;6.70;;;6.00;53.10;;;;;;10348478;28;20638;-75
2022/03/06 17:22:08;;;;;;;8.57;7.47;;;5.90;52.70;;;;;;10345478;28;20233;-75
2022/03/06 17:27:08;;;;;;;7.87;6.07;;;5.90;52.90;;;;;;10346864;28;20269;-75
2022/03/06 17:32:09;;;;;;;6.80;6.10;;;5.90;53.30;;;;;;10367320;28;20229;-75
2022/03/06 17:37:10;;;;;;;8.60;5.80;;;5.90;53.20;;;;;;10342530;28;20609;-75
2022/03/06 17:42:10;;;;;;;6.50;5.90;;;5.80;53.20;;;;;;10346934;28;20234;-76
2022/03/06 17:47:11;;;;;;;7.40;5.77;;;5.80;53.50;;;;;;10347877;28;20226;-75
2022/03/06 17:52:12;;;;;;;5.97;5.37;;;5.70;53.50;;;;;;10351265;28;20325;-74
2022/03/06 17:57:12;;;;;;;6.20;5.47;;;5.70;53.60;;;;;;10344870;28;20684;-75
2022/03/06 18:02:13;;;;;;;7.93;5.67;;;5.70;53.80;;;;;;10352092;28;20731;-75
2022/03/06 18:07:14;;;;;;;6.77;5.50;;;5.70;53.90;;;;;;10346534;28;20242;-75
2022/03/06 18:12:15;;;;;;;6.57;5.30;;;5.70;54.10;;;;;;10350064;28;20225;-75
2022/03/06 18:17:15;;;;;;;8.63;5.63;;;5.60;54.10;;;;;;10343298;28;20221;-75
2022/03/06 18:22:16;;;;;;;9.03;6.00;;;5.50;54.40;;;;;;10345059;28;20233;-74
2022/03/06 18:27:17;;;;;;;7.13;5.57;;;5.50;54.60;;;;;;10345814;28;20233;-75
2022/03/06 18:32:19;;;;;;;7.63;5.57;;;5.40;54.60;;;;;;10348859;28;20221;-75
2022/03/06 18:37:19;;;;;;;7.30;5.20;;;5.40;54.90;;;;;;10345884;28;20229;-74
2022/03/06 18:42:20;;;;;;;7.07;5.40;;;5.30;55.10;;;;;;10351908;28;20294;-75
2022/03/06 18:47:21;;;;;;;8.73;6.13;;;5.30;55.20;;;;;;10339533;28;20316;-76
2022/03/06 18:52:21;;;;;;;6.83;5.30;;;5.20;55.40;;;;;;10347121;28;20278;-74
2022/03/06 18:57:23;;;;;;;7.27;5.60;;;5.10;55.70;;;;;;10337100;28;20685;-75
2022/03/06 19:02:24;;;;;;;7.17;5.73;;;5.10;56.10;;;;;;10341503;28;20245;-74
2022/03/06 19:07:24;;;;;;;8.27;6.93;;;5.10;56.30;;;;;;10334617;28;20688;-74
2022/03/06 19:12:25;;;;;;;6.23;5.47;;;5.10;56.50;;;;;;10335758;28;20999;-75
2022/03/06 19:17:25;;;;;;;6.83;5.70;;;5.00;56.50;;;;;;10337315;28;20602;-74
2022/03/06 19:22:26;;;;;;;6.20;5.33;;;4.90;56.60;;;;;;10346503;28;20229;-74
2022/03/06 19:27:26;;;;;;;9.27;6.10;;;4.80;56.70;;;;;;10344851;28;20626;-74
2022/03/06 19:32:27;;;;;;;6.73;5.53;;;4.80;56.80;;;;;;10334266;28;20598;-75
2022/03/06 19:37:28;;;;;;;6.93;6.00;;;4.80;57.00;;;;;;10328848;28;20885;-75
2022/03/06 19:42:28;;;;;;;6.77;5.63;;;4.70;57.10;;;;;;10328098;28;20233;-74
2022/03/06 19:47:29;;;;;;;8.83;6.50;;;4.60;57.20;;;;;;10336411;28;20218;-73
2022/03/06 19:52:29;;;;;;;9.20;6.10;;;4.60;57.60;;;;;;10339091;28;20228;-75
2022/03/06 19:57:30;;;;;;;8.97;6.07;;;4.50;57.70;;;;;;10334386;28;20225;-76
2022/03/06 20:02:31;;;;;;;8.70;6.40;;;4.50;57.80;;;;;;10343004;28;20320;-75
2022/03/06 20:07:32;;;;;;;7.60;5.90;;;4.60;57.90;;;;;;10332206;28;20221;-75
2022/03/06 20:12:34;;;;;;;8.43;6.50;;;4.60;58.20;;;;;;10332274;28;20252;-76
2022/03/06 20:17:35;;;;;;;9.60;6.60;;;4.50;58.10;;;;;;10344372;28;20233;-74
2022/03/06 20:22:42;;;;;;;9.43;6.90;;;4.40;58.30;;;;;;10355578;28;20235;-76
2022/03/06 20:27:43;;;;;;;9.43;7.00;;;4.40;58.40;;;;;;10347362;28;20225;-75
2022/03/06 20:32:45;;;;;;;8.03;7.00;;;4.40;58.60;;;;;;10357093;28;20217;-77
2022/03/06 20:37:48;;;;;;;8.73;7.10;;;4.40;58.80;;;;;;10355411;28;20222;-77
2022/03/06 20:42:49;;;;;;;11.23;7.57;;;4.40;58.80;;;;;;10336847;28;20240;-76
2022/03/06 20:47:50;;;;;;;9.93;7.47;;;4.40;59.20;;;;;;10339378;28;20248;-76
2022/03/06 20:52:50;;;;;;;12.73;8.03;;;4.40;59.20;;;;;;10344017;28;20221;-77
2022/03/06 20:57:52;;;;;;;15.90;9.23;;;4.50;59.50;;;;;;10351562;28;20229;-75
2022/03/06 21:02:53;;;;;;;11.13;8.00;;;4.50;59.60;;;;;;10342884;28;20307;-75
2022/03/06 21:07:54;;;;;;;9.73;7.47;;;4.60;60.00;;;;;;10351304;28;20267;-75
2022/03/06 21:12:57;;;;;;;9.27;7.60;;;4.50;59.80;;;;;;10344026;28;20692;-75
2022/03/06 21:17:58;;;;;;;10.03;7.70;;;4.50;60.10;;;;;;10340210;28;20226;-78
2022/03/06 21:23:00;;;;;;;11.07;8.17;;;4.50;60.60;;;;;;10342575;28;20238;-76
2022/03/06 21:28:01;;;;;;;11.03;7.73;;;4.50;61.40;;;;;;10351270;28;20248;-76
2022/03/06 21:33:02;;;;;;;11.43;7.90;;;4.40;61.80;;;;;;10343424;28;20598;-74
2022/03/06 21:38:03;;;;;;;12.27;7.63;;;4.30;62.50;;;;;;10345060;28;20229;-76
2022/03/06 21:43:05;;;;;;;10.23;7.60;;;4.40;62.90;;;;;;10343377;28;20221;-76
2022/03/06 21:48:06;;;;;;;9.37;7.33;;;4.30;63.50;;;;;;10347446;28;20715;-74
2022/03/06 21:53:06;;;;;;;12.87;7.90;;;4.30;64.00;;;;;;10346148;28;20214;-74
2022/03/06 21:58:08;;;;;;;10.80;7.57;;;4.10;64.60;;;;;;10349428;28;20217;-75
2022/03/06 22:03:09;;;;;;;10.90;7.97;;;4.00;65.40;;;;;;10353886;28;20217;-75
2022/03/06 22:08:13;;;;;;;9.17;7.00;;;4.00;65.80;;;;;;10339278;28;20440;-75
2022/03/06 22:13:14;;;;;;;10.63;7.00;;;4.10;66.40;;;;;;10347076;28;20225;-76
2022/03/06 22:18:15;;;;;;;10.13;7.10;;;4.00;67.60;;;;;;10340210;28;20220;-74
2022/03/06 22:23:16;;;;;;;9.37;6.67;;;3.90;67.10;;;;;;10340247;28;20567;-74
2022/03/06 22:28:17;;;;;;;10.43;6.43;;;3.80;67.50;;;;;;10336009;28;20272;-75
2022/03/06 22:33:18;;;;;;;9.93;6.40;;;3.70;67.70;;;;;;10351727;28;20268;-74
2022/03/06 22:38:19;;;;;;;8.50;6.40;;;3.60;68.40;;;;;;10340490;28;20235;-74
2022/03/06 22:43:21;;;;;;;10.23;6.90;;;3.60;68.70;;;;;;10343129;28;20631;-74
2022/03/06 22:48:21;;;;;;;10.43;6.63;;;3.70;69.20;;;;;;10348334;28;20237;-75
2022/03/06 22:53:22;;;;;;;8.60;6.93;;;3.60;69.80;;;;;;10353411;28;20229;-75
2022/03/06 22:58:25;;;;;;;11.47;7.40;;;3.50;70.50;;;;;;10350721;28;20224;-75
2022/03/06 23:03:26;;;;;;;9.43;7.13;;;3.50;71.20;;;;;;10340500;28;20214;-75
2022/03/06 23:08:27;;;;;;;10.60;7.23;;;3.40;71.90;;;;;;10341394;28;20217;-75
2022/03/06 23:13:28;;;;;;;9.60;6.83;;;3.30;72.10;;;;;;10338346;28;20619;-75
2022/03/06 23:18:28;;;;;;;8.53;6.33;;;3.20;72.60;;;;;;10342351;28;20226;-75
2022/03/06 23:23:29;;;;;;;8.50;6.43;;;3.10;72.40;;;;;;10352969;28;20620;-75
2022/03/06 23:28:29;;;;;;;10.03;6.30;;;3.10;72.50;;;;;;10339439;28;20271;-75
2022/03/06 23:33:30;;;;;;;7.37;5.80;;;3.10;72.30;;;;;;10340354;28;20229;-74
2022/03/06 23:38:34;;;;;;;6.57;5.40;;;3.00;72.20;;;;;;10350720;28;20230;-75
2022/03/06 23:43:35;;;;;;;7.70;6.03;;;2.90;72.60;;;;;;10349009;28;20770;-75
2022/03/06 23:48:36;;;;;;;7.23;5.67;;;2.90;72.80;;;;;;10328058;28;20222;-74
2022/03/06 23:53:39;;;;;;;7.73;5.50;;;2.90;72.80;;;;;;10337500;28;20222;-74
2022/03/06 23:58:44;;;;;;;10.23;6.03;;;2.80;72.80;;;;;;10335660;28;20214;-74
